createdAt,value
2023-03-24T00:03:08.052Z,13.09
2023-03-24T00:06:35.205Z,13.06
2023-03-24T00:09:41.178Z,13.08
2023-03-24T00:12:48.941Z,13.07
2023-03-24T00:15:57.550Z,13.07
2023-03-24T00:19:10.919Z,13.03
2023-03-24T00:22:17.285Z,12.88
2023-03-24T00:25:30.050Z,12.90
2023-03-24T00:28:39.418Z,12.89
2023-03-24T00:31:49.992Z,12.84
2023-03-24T00:34:56.170Z,12.79
2023-03-24T00:38:03.205Z,12.75
2023-03-24T00:41:18.157Z,12.64
2023-03-24T00:44:29.206Z,12.72
2023-03-24T00:47:39.542Z,12.69
2023-03-24T00:50:49.834Z,12.57
2023-03-24T00:53:58.245Z,12.56
2023-03-24T00:57:06.645Z,12.64
2023-03-24T01:00:17.235Z,12.65
2023-03-24T01:03:29.164Z,12.60
2023-03-24T01:06:41.457Z,12.59
2023-03-24T01:09:58.974Z,12.60
2023-03-24T01:13:07.619Z,12.50
2023-03-24T01:16:15.941Z,12.41
2023-03-24T01:19:26.605Z,12.34
2023-03-24T01:22:37.843Z,12.26
2023-03-24T01:25:48.445Z,12.23
2023-03-24T01:28:55.376Z,12.20
2023-03-24T01:32:01.404Z,12.22
2023-03-24T01:35:11.879Z,12.24
2023-03-24T01:38:20.511Z,12.18
2023-03-24T01:41:35.686Z,12.16
2023-03-24T01:44:42.426Z,12.20
2023-03-24T01:47:49.509Z,12.16
2023-03-24T01:51:06.443Z,12.11
2023-03-24T01:54:22.223Z,12.02
2023-03-24T01:57:46.821Z,11.97
2023-03-24T02:00:54.949Z,11.93
2023-03-24T02:04:28.227Z,11.91
2023-03-24T02:08:25.025Z,11.92
2023-03-24T02:11:48.450Z,11.90
2023-03-24T02:14:56.798Z,11.85
2023-03-24T02:18:18.729Z,11.85
2023-03-24T02:22:10.156Z,11.74
2023-03-24T02:26:03.592Z,11.35
2023-03-24T02:30:09.050Z,11.19
2023-03-24T02:34:18.021Z,11.17
2023-03-24T02:38:15.608Z,11.14
2023-03-24T02:41:37.340Z,11.19
2023-03-24T02:45:00.220Z,11.25
2023-03-24T02:48:30.652Z,11.28
2023-03-24T02:51:54.685Z,11.34
2023-03-24T02:55:09.903Z,11.39
2023-03-24T02:58:32.493Z,11.41
2023-03-24T03:01:56.480Z,11.47
2023-03-24T03:05:28.392Z,11.54
2023-03-24T03:08:39.579Z,11.62
2023-03-24T03:11:56.144Z,11.61
2023-03-24T03:15:13.172Z,11.74
2023-03-24T03:18:29.562Z,11.79
2023-03-24T03:21:45.464Z,11.77
2023-03-24T03:25:01.560Z,11.75
2023-03-24T03:28:13.656Z,11.68
2023-03-24T03:31:32.921Z,11.58
2023-03-24T03:34:50.983Z,11.56
2023-03-24T03:38:17.933Z,11.44
2023-03-24T03:41:27.308Z,11.38
2023-03-24T03:44:35.588Z,11.43
2023-03-24T03:47:44.890Z,11.33
2023-03-24T03:50:59.862Z,11.31
2023-03-24T03:54:20.064Z,11.30
2023-03-24T03:57:28.471Z,11.21
2023-03-24T04:00:59.691Z,11.16
2023-03-24T04:05:14.081Z,11.03
2023-03-24T04:08:51.942Z,10.91
2023-03-24T04:12:28.787Z,10.76
2023-03-24T04:16:05.073Z,10.74
2023-03-24T04:20:05.953Z,10.68
2023-03-24T04:23:31.250Z,10.59
2023-03-24T04:26:51.596Z,10.56
2023-03-24T04:30:16.958Z,10.47
2023-03-24T04:33:44.022Z,10.38
2023-03-24T04:37:03.128Z,10.29
2023-03-24T04:40:29.754Z,10.19
2023-03-24T04:43:48.705Z,10.05
2023-03-24T04:47:01.815Z,9.97
2023-03-24T04:50:14.200Z,9.94
2023-03-24T04:53:23.938Z,9.95
2023-03-24T04:56:41.476Z,9.89
2023-03-24T05:00:02.808Z,9.72
2023-03-24T05:03:10.009Z,9.74
2023-03-24T05:06:17.819Z,9.71
2023-03-24T05:09:31.865Z,9.60
2023-03-24T05:12:40.693Z,9.58
2023-03-24T05:15:52.711Z,9.55
2023-03-24T05:19:20.800Z,9.33
2023-03-24T05:22:27.489Z,9.22
2023-03-24T05:25:36.979Z,9.17
2023-03-24T05:28:43.260Z,9.00
2023-03-24T05:31:52.029Z,8.90
2023-03-24T05:35:01.293Z,8.81
2023-03-24T05:38:12.494Z,8.78
2023-03-24T05:41:28.666Z,8.76
2023-03-24T05:44:36.157Z,8.70
2023-03-24T05:47:51.843Z,8.66
2023-03-24T05:51:15.892Z,8.64
2023-03-24T05:54:22.665Z,8.68
2023-03-24T05:57:36.984Z,8.71
2023-03-24T06:01:01.919Z,8.74
2023-03-24T06:04:15.236Z,8.72
2023-03-24T06:07:22.506Z,8.66
2023-03-24T06:10:30.106Z,8.75
2023-03-24T06:13:40.018Z,8.74
2023-03-24T06:16:50.282Z,8.83
2023-03-24T06:20:03.216Z,8.84
2023-03-24T06:23:24.169Z,8.92
2023-03-24T06:26:44.970Z,9.05
2023-03-24T06:29:56.315Z,9.09
2023-03-24T06:33:02.654Z,9.07
2023-03-24T06:36:11.635Z,9.12
2023-03-24T06:39:21.949Z,9.23
2023-03-24T06:42:29.063Z,9.35
2023-03-24T06:45:39.757Z,9.23
2023-03-24T06:48:54.431Z,9.27
2023-03-24T06:52:00.715Z,9.32
2023-03-24T06:55:13.183Z,9.29
2023-03-24T06:58:24.997Z,9.39
2023-03-24T07:01:49.828Z,9.56
2023-03-24T07:05:01.819Z,9.60
2023-03-24T07:11:36.943Z,9.76
2023-03-24T07:14:46.315Z,9.90
2023-03-24T07:17:55.204Z,10.00
2023-03-24T07:21:15.528Z,10.06
2023-03-24T07:24:21.886Z,10.21
2023-03-24T07:27:44.534Z,10.22
2023-03-24T07:30:53.931Z,10.40
2023-03-24T07:34:05.042Z,10.51
2023-03-24T07:37:12.855Z,10.68
2023-03-24T07:40:20.853Z,10.91
2023-03-24T07:43:27.429Z,11.11
2023-03-24T07:46:55.657Z,11.33
2023-03-24T07:50:07.218Z,11.68
2023-03-24T07:53:20.315Z,12.00
2023-03-24T07:56:27.562Z,12.48
2023-03-24T07:59:37.314Z,12.28
2023-03-24T08:03:10.045Z,13.02
2023-03-24T08:06:29.836Z,13.41
2023-03-24T08:09:56.172Z,13.98
2023-03-24T08:13:04.061Z,14.36
2023-03-24T08:16:11.578Z,14.78
2023-03-24T08:19:18.435Z,14.78
2023-03-24T08:22:27.512Z,15.21
2023-03-24T08:25:34.962Z,14.99
2023-03-24T08:28:41.895Z,15.13
2023-03-24T08:31:50.529Z,15.06
2023-03-24T08:34:58.544Z,15.65
2023-03-24T08:38:12.228Z,15.73
2023-03-24T08:41:18.334Z,15.75
2023-03-24T08:44:25.281Z,16.24
2023-03-24T08:47:33.083Z,16.60
2023-03-24T08:50:43.398Z,16.36
2023-03-24T08:53:54.241Z,16.08
2023-03-24T08:57:01.148Z,16.76
2023-03-24T09:00:15.196Z,16.56
2023-03-24T09:03:24.409Z,17.14
2023-03-24T09:06:33.173Z,16.78
2023-03-24T09:09:42.750Z,17.27
2023-03-24T09:12:49.747Z,17.15
2023-03-24T09:16:02.966Z,16.86
2023-03-24T09:19:09.547Z,16.86
2023-03-24T09:22:19.018Z,16.97
2023-03-24T09:25:34.017Z,17.03
2023-03-24T09:28:40.884Z,16.89
2023-03-24T09:31:46.891Z,17.82
2023-03-24T09:34:54.044Z,17.99
2023-03-24T09:38:00.244Z,17.88
2023-03-24T09:41:23.200Z,17.25
2023-03-24T09:44:40.054Z,16.42
2023-03-24T09:48:08.277Z,16.29
2023-03-24T09:51:52.153Z,16.01
2023-03-24T09:55:03.507Z,16.02
2023-03-24T09:58:16.819Z,16.23
2023-03-24T10:01:24.433Z,16.20
2023-03-24T10:04:35.140Z,16.12
2023-03-24T10:07:53.651Z,16.31
2023-03-24T10:11:07.695Z,16.37
2023-03-24T10:14:50.283Z,16.35
2023-03-24T10:18:11.787Z,16.76
2023-03-24T10:21:28.549Z,17.05
2023-03-24T10:24:48.556Z,17.56
2023-03-24T10:28:02.861Z,18.09
2023-03-24T10:31:20.597Z,18.15
2023-03-24T10:34:34.608Z,18.62
2023-03-24T10:37:41.506Z,18.78
2023-03-24T10:40:50.694Z,19.03
2023-03-24T10:44:01.334Z,18.43
2023-03-24T10:47:17.572Z,17.56
2023-03-24T10:50:30.411Z,17.06
2023-03-24T10:53:39.736Z,17.36
2023-03-24T10:56:49.120Z,17.77
2023-03-24T11:00:01.670Z,17.37
2023-03-24T11:03:19.251Z,17.29
2023-03-24T11:06:26.402Z,17.28
2023-03-24T11:09:33.646Z,17.43
2023-03-24T11:12:46.524Z,17.95
2023-03-24T11:16:14.408Z,17.74
2023-03-24T11:19:27.481Z,17.09
2023-03-24T11:22:34.252Z,17.13
2023-03-24T11:25:46.159Z,17.33
2023-03-24T11:28:58.870Z,17.00
2023-03-24T11:32:16.952Z,17.08
2023-03-24T11:35:39.111Z,17.06
2023-03-24T11:39:04.430Z,16.89
2023-03-24T11:42:20.609Z,16.74
2023-03-24T11:45:36.992Z,16.83
2023-03-24T11:48:53.650Z,16.87
2023-03-24T11:52:05.620Z,16.73
2023-03-24T11:55:21.675Z,16.63
2023-03-24T11:58:40.380Z,17.29
2023-03-24T12:01:59.011Z,17.30
2023-03-24T12:05:32.305Z,17.29
2023-03-24T12:09:04.546Z,16.95
2023-03-24T12:12:38.429Z,16.40
2023-03-24T12:16:04.117Z,16.46
2023-03-24T12:20:24.584Z,16.28
2023-03-24T12:23:50.916Z,16.42
2023-03-24T12:27:03.960Z,16.26
2023-03-24T12:30:26.818Z,16.04
2023-03-24T12:33:54.259Z,16.19
2023-03-24T12:37:14.735Z,15.90
2023-03-24T12:41:03.773Z,16.04
2023-03-24T12:44:44.510Z,15.94
2023-03-24T12:48:22.293Z,15.89
2023-03-24T12:51:47.025Z,15.82
2023-03-24T12:55:06.979Z,15.95
2023-03-24T12:58:28.041Z,15.99
2023-03-24T13:01:43.045Z,15.93
2023-03-24T13:04:56.505Z,16.12
2023-03-24T13:08:14.543Z,16.30
2023-03-24T13:11:47.934Z,16.29
2023-03-24T13:15:10.635Z,16.37
2023-03-24T13:18:34.788Z,16.56
2023-03-24T13:21:41.671Z,16.35
2023-03-24T13:24:50.664Z,16.20
2023-03-24T13:28:14.567Z,16.36
2023-03-24T13:31:30.539Z,16.44
2023-03-24T13:34:44.546Z,16.19
2023-03-24T13:38:05.001Z,16.20
2023-03-24T13:41:24.368Z,16.09
2023-03-24T13:44:41.963Z,16.07
2023-03-24T13:48:09.394Z,16.20
2023-03-24T13:51:25.020Z,16.37
2023-03-24T13:54:33.997Z,16.29
2023-03-24T13:57:45.225Z,16.21
2023-03-24T14:01:34.669Z,16.38
2023-03-24T14:05:05.852Z,16.32
2023-03-24T14:08:22.144Z,16.14
2023-03-24T14:11:49.866Z,16.26
2023-03-24T14:15:23.966Z,16.46
2023-03-24T14:18:46.301Z,16.45
2023-03-24T14:22:18.534Z,16.51
2023-03-24T14:25:33.415Z,16.53
2023-03-24T14:28:46.966Z,16.63
2023-03-24T14:35:34.874Z,16.78
2023-03-24T14:38:47.665Z,16.81
2023-03-24T14:41:55.565Z,16.63
2023-03-24T14:45:04.832Z,16.61
2023-03-24T14:48:32.837Z,16.53
2023-03-24T14:51:50.639Z,16.34
2023-03-24T14:55:06.078Z,16.40
2023-03-24T14:58:27.483Z,16.37
2023-03-24T15:01:38.684Z,16.21
2023-03-24T15:04:48.338Z,16.31
2023-03-24T15:08:19.197Z,16.15
2023-03-24T15:11:33.604Z,16.18
2023-03-24T15:14:41.390Z,16.11
2023-03-24T15:17:49.952Z,16.11
2023-03-24T15:21:05.382Z,15.95
2023-03-24T15:24:38.492Z,16.05
2023-03-24T15:27:57.850Z,15.91
2023-03-24T15:31:05.082Z,15.88
2023-03-24T15:34:32.103Z,15.86
2023-03-24T15:37:46.249Z,15.77
2023-03-24T15:41:05.117Z,15.54
2023-03-24T15:44:23.636Z,15.34
2023-03-24T15:47:40.230Z,15.15
2023-03-24T15:51:01.146Z,14.85
2023-03-24T15:54:08.131Z,14.71
2023-03-24T15:57:25.960Z,14.48
2023-03-24T16:00:45.999Z,14.14
2023-03-24T16:03:52.521Z,14.08
2023-03-24T16:07:00.867Z,13.78
2023-03-24T16:10:28.081Z,13.77
2023-03-24T16:13:35.022Z,13.82
2023-03-24T16:16:46.873Z,13.75
2023-03-24T16:19:54.034Z,13.64
2023-03-24T16:23:00.134Z,13.62
2023-03-24T16:26:09.753Z,13.47
2023-03-24T16:29:21.177Z,13.51
2023-03-24T16:32:33.780Z,13.42
2023-03-24T16:35:40.115Z,13.27
2023-03-24T16:38:49.391Z,13.15
2023-03-24T16:41:56.123Z,13.05
2023-03-24T16:45:02.927Z,12.92
2023-03-24T16:48:14.370Z,12.83
2023-03-24T16:51:21.790Z,12.74
2023-03-24T16:54:27.840Z,12.64
2023-03-24T16:57:35.452Z,12.64
2023-03-24T17:00:44.089Z,12.65
2023-03-24T17:03:54.815Z,12.56
2023-03-24T17:07:07.461Z,12.37
2023-03-24T17:10:25.919Z,12.23
2023-03-24T17:13:31.954Z,11.94
2023-03-24T17:16:43.894Z,11.79
2023-03-24T17:19:54.641Z,11.79
2023-03-24T17:23:01.944Z,11.57
2023-03-24T17:26:11.157Z,11.24
2023-03-24T17:29:18.450Z,11.11
2023-03-24T17:32:26.589Z,11.11
2023-03-24T17:35:36.386Z,11.15
2023-03-24T17:38:44.347Z,11.13
2023-03-24T17:41:57.959Z,11.20
2023-03-24T17:45:08.756Z,11.25
2023-03-24T17:48:21.755Z,11.24
2023-03-24T17:51:33.352Z,11.34
2023-03-24T17:54:40.376Z,11.29
2023-03-24T17:57:47.652Z,11.28
2023-03-24T18:01:08.999Z,11.33
2023-03-24T18:04:15.334Z,11.27
2023-03-24T18:07:27.572Z,11.22
2023-03-24T18:10:40.670Z,11.11
2023-03-24T18:13:54.393Z,11.08
2023-03-24T18:17:00.527Z,11.00
2023-03-24T18:20:15.088Z,10.93
2023-03-24T18:23:23.744Z,10.97
2023-03-24T18:26:31.043Z,10.97
2023-03-24T18:29:37.157Z,10.87
2023-03-24T18:32:49.451Z,10.81
2023-03-24T18:35:57.316Z,10.80
2023-03-24T18:39:24.174Z,10.87
2023-03-24T18:42:30.469Z,10.77
2023-03-24T18:45:37.520Z,10.73
2023-03-24T18:48:47.962Z,10.66
2023-03-24T18:51:54.929Z,10.66
2023-03-24T18:55:05.375Z,10.70
2023-03-24T18:58:15.562Z,10.73
2023-03-24T19:01:24.401Z,10.71
2023-03-24T19:04:31.425Z,10.71
2023-03-24T19:07:37.625Z,10.63
2023-03-24T19:10:49.054Z,10.66
2023-03-24T19:13:55.262Z,10.66
2023-03-24T19:17:07.236Z,10.67
2023-03-24T19:20:15.683Z,10.66
2023-03-24T19:23:22.972Z,10.71
2023-03-24T19:26:34.939Z,10.65
2023-03-24T19:29:42.482Z,10.75
2023-03-24T19:32:49.801Z,10.74
2023-03-24T19:35:58.726Z,10.78
2023-03-24T19:39:05.048Z,10.69
2023-03-24T19:42:22.020Z,10.72
2023-03-24T19:45:28.513Z,10.84
2023-03-24T19:48:36.654Z,10.94
2023-03-24T19:51:42.622Z,10.95
2023-03-24T19:54:52.786Z,10.85
2023-03-24T19:58:03.538Z,10.90
2023-03-24T20:01:10.420Z,10.88
2023-03-24T20:04:19.284Z,10.90
2023-03-24T20:07:29.514Z,10.91
2023-03-24T20:10:43.130Z,10.91
2023-03-24T20:13:52.562Z,10.85
2023-03-24T20:16:58.629Z,10.71
2023-03-24T20:20:05.706Z,10.74
2023-03-24T20:23:12.558Z,10.67
2023-03-24T20:26:19.454Z,10.73
2023-03-24T20:29:28.221Z,10.62
2023-03-24T20:32:35.248Z,10.62
2023-03-24T20:35:41.301Z,10.51
2023-03-24T20:38:48.131Z,10.55
2023-03-24T20:41:54.335Z,10.46
2023-03-24T20:45:04.029Z,10.38
2023-03-24T20:48:10.314Z,10.43
2023-03-24T20:51:17.565Z,10.38
2023-03-24T20:54:24.330Z,10.42
2023-03-24T20:57:31.785Z,10.32
2023-03-24T21:00:46.440Z,10.32
2023-03-24T21:04:04.798Z,10.38
2023-03-24T21:07:15.407Z,10.33
2023-03-24T21:10:22.386Z,10.29
2023-03-24T21:13:37.190Z,10.30
2023-03-24T21:16:48.306Z,10.24
2023-03-24T21:19:54.953Z,10.17
2023-03-24T21:23:04.690Z,10.21
2023-03-24T21:26:15.999Z,10.16
2023-03-24T21:29:22.963Z,10.20
2023-03-24T21:32:32.040Z,10.27
2023-03-24T21:35:38.935Z,10.37
2023-03-24T21:38:45.206Z,10.34
2023-03-24T21:41:52.760Z,10.36
2023-03-24T21:44:58.780Z,10.55
2023-03-24T21:48:10.279Z,10.56
2023-03-24T21:51:19.048Z,10.47
2023-03-24T21:54:27.013Z,10.51
2023-03-24T21:57:33.061Z,10.65
2023-03-24T22:00:40.442Z,10.62
2023-03-24T22:03:49.089Z,10.73
2023-03-24T22:06:56.573Z,10.66
2023-03-24T22:10:03.600Z,10.68
2023-03-24T22:13:28.577Z,10.62
2023-03-24T22:16:37.674Z,10.64
2023-03-24T22:19:50.395Z,10.57
2023-03-24T22:22:56.593Z,10.60
2023-03-24T22:26:04.815Z,10.57
2023-03-24T22:29:11.317Z,10.52
2023-03-24T22:32:36.676Z,10.56
2023-03-24T22:35:45.587Z,10.52
2023-03-24T22:38:52.499Z,10.46
2023-03-24T22:41:58.775Z,10.49
2023-03-24T22:45:05.641Z,10.41
2023-03-24T22:48:11.962Z,10.37
2023-03-24T22:51:21.987Z,10.40
2023-03-24T22:54:28.201Z,10.32
2023-03-24T22:57:36.332Z,10.34
2023-03-24T23:00:42.414Z,10.33
2023-03-24T23:03:49.240Z,10.35
2023-03-24T23:06:58.808Z,10.42
2023-03-24T23:10:06.788Z,10.45
2023-03-24T23:13:13.640Z,10.47
2023-03-24T23:16:21.560Z,10.47
2023-03-24T23:19:28.434Z,10.49
2023-03-24T23:22:39.241Z,10.40
2023-03-24T23:25:48.886Z,10.33
2023-03-24T23:28:59.398Z,10.39
2023-03-24T23:32:05.660Z,10.47
2023-03-24T23:35:14.712Z,10.60
2023-03-24T23:38:36.598Z,10.43
2023-03-24T23:41:43.332Z,10.44
2023-03-24T23:44:49.509Z,10.44
2023-03-24T23:47:57.629Z,10.47
2023-03-24T23:51:08.177Z,10.42
2023-03-24T23:54:17.819Z,10.25
2023-03-24T23:57:23.998Z,10.25
